Time;durP1;ratioP1;P1;durP2;ratioP2;P2;SDS_P1;SDS_P2;PMS_P1;PMS_P2;Temp;Humidity;BMP_temperature;BMP_pressure;BME280_temperature;BME280_humidity;BME280_pressure;Samples;Min_cycle;Max_cycle;Signal;HPM_P1;HPM_P2
2022/11/15 00:01:38;;;;;;;20.10;9.57;;;10.00;99.90;;;;;;5092566;28;20119;-72
2022/11/15 00:04:04;;;;;;;17.35;9.65;;;10.00;99.90;;;;;;5092739;28;20424;-71
2022/11/15 00:06:30;;;;;;;18.75;10.02;;;9.90;99.90;;;;;;5092457;28;20032;-71
2022/11/15 00:08:58;;;;;;;14.98;8.48;;;9.90;99.90;;;;;;5074722;28;20020;-71
2022/11/15 00:11:24;;;;;;;16.08;8.88;;;10.00;99.90;;;;;;5092259;28;20044;-69
2022/11/15 00:13:50;;;;;;;16.75;9.18;;;10.00;99.90;;;;;;5092227;28;20469;-70
2022/11/15 00:16:16;;;;;;;14.85;8.48;;;10.00;99.90;;;;;;5092331;28;20034;-71
2022/11/15 00:18:41;;;;;;;15.05;8.20;;;10.00;99.90;;;;;;5092275;28;20016;-72
2022/11/15 00:21:12;;;;;;;16.92;9.18;;;10.00;99.90;;;;;;5092504;28;20043;-71
2022/11/15 00:23:38;;;;;;;16.92;8.48;;;10.00;99.90;;;;;;5092181;28;20039;-70
2022/11/15 00:26:04;;;;;;;15.40;9.25;;;10.10;99.90;;;;;;5074273;28;20029;-70
2022/11/15 00:28:29;;;;;;;26.67;12.20;;;10.10;99.90;;;;;;5074074;28;20032;-72
2022/11/15 00:31:06;;;;;;;18.95;9.57;;;10.00;99.90;;;;;;5091842;28;20032;-70
2022/11/15 00:33:33;;;;;;;15.20;8.60;;;10.00;99.90;;;;;;5092081;28;20099;-71
2022/11/15 00:36:08;;;;;;;15.43;8.75;;;10.10;99.90;;;;;;5092280;28;20023;-71
2022/11/15 00:38:36;;;;;;;15.15;8.65;;;10.10;99.90;;;;;;5091733;28;20052;-70
2022/11/15 00:41:03;;;;;;;20.95;9.93;;;10.20;99.90;;;;;;5091673;28;20027;-71
2022/11/15 00:43:29;;;;;;;13.70;8.07;;;10.20;99.90;;;;;;5091500;28;20135;-70
2022/11/15 00:45:55;;;;;;;19.23;8.57;;;10.20;99.90;;;;;;5091516;28;20115;-72
2022/11/15 00:48:21;;;;;;;12.73;7.95;;;10.20;99.90;;;;;;5092054;28;20024;-71
2022/11/15 00:50:48;;;;;;;15.68;8.75;;;10.30;99.90;;;;;;5073131;28;20024;-71
2022/11/15 00:53:13;;;;;;;21.73;10.25;;;10.30;99.90;;;;;;5091704;28;20461;-72
2022/11/15 00:55:39;;;;;;;18.88;9.30;;;10.30;99.90;;;;;;5091426;28;20279;-72
2022/11/15 00:58:05;;;;;;;14.63;8.18;;;10.30;99.90;;;;;;5091455;28;20377;-71
2022/11/15 01:00:30;;;;;;;17.90;8.52;;;10.30;99.90;;;;;;5091302;28;20058;-71
2022/11/15 01:02:56;;;;;;;14.73;8.32;;;10.40;99.90;;;;;;5073836;28;20073;-71
2022/11/15 01:05:22;;;;;;;20.45;10.60;;;10.40;99.90;;;;;;5091564;28;20111;-70
2022/11/15 01:07:55;;;;;;;17.60;9.18;;;10.30;99.90;;;;;;5091212;28;20370;-71
2022/11/15 01:10:21;;;;;;;13.88;8.00;;;10.40;99.90;;;;;;5091090;28;20510;-71
2022/11/15 01:12:47;;;;;;;18.00;8.85;;;10.40;99.90;;;;;;5091200;28;20458;-72
2022/11/15 01:15:13;;;;;;;18.00;8.68;;;10.50;99.90;;;;;;5091669;28;20024;-72
2022/11/15 01:17:38;;;;;;;16.00;8.77;;;10.50;99.90;;;;;;5073267;28;20138;-70
2022/11/15 01:20:04;;;;;;;15.77;7.15;;;10.60;99.90;;;;;;5073218;28;20083;-71
2022/11/15 01:22:30;;;;;;;17.95;9.00;;;10.50;99.90;;;;;;5090906;28;20048;-71
2022/11/15 01:24:56;;;;;;;17.80;9.10;;;10.60;99.90;;;;;;5072998;28;20035;-70
2022/11/15 01:27:22;;;;;;;21.42;9.15;;;10.60;99.90;;;;;;5091433;28;20027;-70
2022/11/15 01:29:47;;;;;;;15.45;8.30;;;10.60;99.90;;;;;;5091085;28;20074;-70
2022/11/15 01:32:13;;;;;;;19.75;9.98;;;10.70;99.90;;;;;;5091139;28;20450;-70
2022/11/15 01:34:39;;;;;;;20.42;8.93;;;10.70;99.90;;;;;;5091035;28;20054;-71
2022/11/15 01:37:04;;;;;;;16.15;7.78;;;10.70;99.90;;;;;;5090800;28;20028;-70
2022/11/15 01:39:30;;;;;;;15.13;8.23;;;10.70;99.90;;;;;;5090867;28;20027;-70
2022/11/15 01:41:56;;;;;;;21.17;11.52;;;10.70;99.90;;;;;;5073044;28;20131;-71
2022/11/15 01:44:33;;;;;;;22.25;11.10;;;10.60;99.90;;;;;;5090707;28;20024;-71
2022/11/15 01:47:07;;;;;;;17.05;9.52;;;10.60;99.90;;;;;;5090870;28;20028;-71
2022/11/15 01:49:35;;;;;;;21.70;11.02;;;10.50;99.90;;;;;;5072904;28;20110;-70
2022/11/15 01:52:03;;;;;;;24.92;10.38;;;10.40;99.90;;;;;;5090562;28;20046;-70
2022/11/15 01:54:30;;;;;;;15.25;9.13;;;10.40;99.90;;;;;;5090497;28;20441;-70
2022/11/15 01:57:03;;;;;;;19.58;9.57;;;10.30;99.90;;;;;;5090975;28;20345;-70
2022/11/15 01:59:30;;;;;;;15.55;8.50;;;10.30;99.90;;;;;;5090347;28;20410;-70
2022/11/15 02:01:56;;;;;;;17.98;10.10;;;10.20;99.90;;;;;;5090462;28;20382;-71
2022/11/15 02:04:30;;;;;;;22.15;10.55;;;10.20;99.90;;;;;;5094552;28;20114;-71
2022/11/15 02:06:57;;;;;;;18.73;9.05;;;10.20;99.90;;;;;;5094714;28;20089;-70
2022/11/15 02:09:23;;;;;;;19.70;9.50;;;10.20;99.90;;;;;;5077065;28;20111;-69
2022/11/15 02:11:51;;;;;;;13.20;7.68;;;10.20;99.90;;;;;;5077114;28;20423;-70
2022/11/15 02:14:18;;;;;;;;;;;10.20;99.90;;;;;;5095003;28;20032;-70
2022/11/15 02:16:59;;;;;;;26.40;9.60;;;10.10;99.90;;;;;;5094511;28;19908;-71
2022/11/15 02:19:53;;;;;;;29.55;9.95;;;10.20;99.90;;;;;;5076659;28;20071;-71
2022/11/15 02:22:22;;;;;;;16.00;8.52;;;10.20;99.90;;;;;;5094365;28;20102;-71
2022/11/15 02:25:14;;;;;;;14.50;9.15;;;10.20;99.90;;;;;;5094240;28;20044;-69
2022/11/15 02:28:10;;;;;;;14.50;7.85;;;10.30;99.90;;;;;;5094388;28;20089;-70
2022/11/15 02:30:54;;;;;;;9.95;6.13;;;10.30;99.90;;;;;;5076361;28;20031;-71
2022/11/15 02:33:46;;;;;;;15.45;8.00;;;10.40;99.90;;;;;;5095019;28;20031;-70
2022/11/15 02:36:15;;;;;;;13.98;6.90;;;10.40;99.90;;;;;;5094262;28;20465;-70
2022/11/15 02:39:07;;;;;;;19.55;8.23;;;10.40;99.90;;;;;;5076217;28;20365;-70
2022/11/15 02:41:38;;;;;;;16.30;7.55;;;10.50;99.90;;;;;;5079920;28;20034;-69
2022/11/15 02:44:11;;;;;;;17.52;8.63;;;10.50;99.90;;;;;;5094018;28;20042;-69
2022/11/15 02:49:32;;;;;;;19.17;8.57;;;10.40;99.90;;;;;;5093860;28;20518;-70
2022/11/15 02:51:58;;;;;;;15.02;9.02;;;10.40;99.90;;;;;;5093845;28;20454;-70
2022/11/15 02:54:28;;;;;;;11.57;7.10;;;10.40;99.90;;;;;;5093775;28;20289;-70
2022/11/15 02:56:59;;;;;;;17.77;8.38;;;10.40;99.90;;;;;;5094353;28;20331;-71
2022/11/15 02:59:52;;;;;;;17.08;8.63;;;10.40;99.90;;;;;;5093758;28;20032;-69
2022/11/15 03:02:34;;;;;;;11.20;6.95;;;10.40;99.90;;;;;;5093695;28;20031;-70
2022/11/15 03:05:23;;;;;;;13.40;6.25;;;10.40;99.90;;;;;;5093799;28;20028;-70
2022/11/15 03:08:07;;;;;;;12.05;6.55;;;10.40;99.90;;;;;;5093905;28;20448;-70
2022/11/15 03:10:39;;;;;;;11.50;6.70;;;10.30;99.90;;;;;;5093939;28;20173;-69
2022/11/15 03:13:30;;;;;;;15.07;6.95;;;10.30;99.90;;;;;;5093436;28;20024;-69
2022/11/15 03:16:15;;;;;;;10.00;6.18;;;10.30;99.90;;;;;;5093405;28;20080;-70
2022/11/15 03:18:47;;;;;;;9.57;6.38;;;10.30;99.90;;;;;;5093374;28;20043;-70
2022/11/15 03:21:15;;;;;;;9.65;5.93;;;10.30;99.90;;;;;;5093984;28;20457;-70
2022/11/15 03:23:42;;;;;;;12.48;6.82;;;10.40;99.90;;;;;;5093333;28;20281;-70
2022/11/15 03:26:11;;;;;;;16.63;7.00;;;10.50;99.90;;;;;;5093365;28;20059;-70
2022/11/15 03:28:43;;;;;;;17.52;6.65;;;10.40;99.90;;;;;;5093106;28;20647;-71
2022/11/15 03:33:57;;;;;;;13.47;6.40;;;10.60;99.90;;;;;;5093723;28;20043;-70
2022/11/15 03:36:25;;;;;;;12.18;7.00;;;10.60;99.90;;;;;;5093213;28;20157;-68
2022/11/15 03:38:56;;;;;;;15.23;6.00;;;10.70;99.90;;;;;;5093661;28;20062;-70
2022/11/15 03:41:33;;;;;;;13.30;6.43;;;10.80;99.90;;;;;;5092791;28;20478;-70
2022/11/15 03:44:14;;;;;;;11.68;6.63;;;10.90;99.90;;;;;;5092779;28;20067;-70
2022/11/15 03:46:57;;;;;;;13.10;6.00;;;11.00;99.90;;;;;;5092783;28;20096;-71
2022/11/15 03:49:29;;;;;;;8.93;5.60;;;11.10;99.90;;;;;;5093217;28;20024;-70
2022/11/15 03:51:58;;;;;;;12.18;5.75;;;11.20;99.90;;;;;;5092949;28;20028;-70
2022/11/15 03:54:24;;;;;;;12.43;5.38;;;11.30;99.90;;;;;;5092848;28;20061;-71
2022/11/15 03:56:49;;;;;;;14.32;6.30;;;11.30;99.90;;;;;;5093356;28;20027;-71
2022/11/15 03:59:15;;;;;;;9.30;5.18;;;11.40;99.90;;;;;;5092731;28;20166;-70
2022/11/15 04:01:41;;;;;;;11.52;5.28;;;11.50;99.90;;;;;;5092725;28;20028;-71
2022/11/15 04:04:06;;;;;;;11.18;6.13;;;11.50;99.90;;;;;;5092734;28;20024;-71
2022/11/15 04:06:32;;;;;;;11.10;5.72;;;11.60;99.90;;;;;;5092759;28;20031;-71
2022/11/15 04:08:58;;;;;;;12.57;5.28;;;11.60;99.90;;;;;;5074998;28;20031;-71
2022/11/15 04:11:23;;;;;;;7.68;4.80;;;11.60;99.90;;;;;;5092437;28;20024;-72
2022/11/15 04:13:52;;;;;;;10.80;5.72;;;11.60;99.90;;;;;;5074312;28;20036;-71
2022/11/15 04:16:18;;;;;;;13.35;5.35;;;11.60;99.90;;;;;;5092134;28;20043;-71
2022/11/15 04:18:43;;;;;;;9.65;4.50;;;11.60;99.90;;;;;;5092091;28;20024;-70
2022/11/15 04:24:11;;;;;;;9.13;5.13;;;11.60;99.90;;;;;;5092027;28;20071;-71
2022/11/15 04:26:37;;;;;;;9.07;4.53;;;11.60;99.90;;;;;;5091343;28;20040;-70
2022/11/15 04:31:48;;;;;;;10.90;4.70;;;11.70;99.90;;;;;;5091862;28;20084;-71
2022/11/15 04:34:13;;;;;;;7.88;4.65;;;11.70;99.90;;;;;;5074016;28;20392;-70
2022/11/15 04:39:23;;;;;;;8.88;4.07;;;11.70;99.90;;;;;;5091490;28;20074;-69
2022/11/15 04:41:49;;;;;;;9.43;4.68;;;11.70;99.90;;;;;;5092300;28;20035;-71
2022/11/15 04:44:16;;;;;;;8.82;4.88;;;11.80;99.90;;;;;;5073752;28;20385;-70
2022/11/15 04:46:42;;;;;;;12.13;5.30;;;11.80;99.90;;;;;;5091822;28;20028;-70
2022/11/15 04:49:07;;;;;;;11.18;4.28;;;11.80;99.90;;;;;;5091752;28;20245;-71
2022/11/15 04:51:33;;;;;;;5.47;3.95;;;11.80;99.90;;;;;;5091545;28;20377;-70
2022/11/15 04:53:59;;;;;;;10.82;4.20;;;11.80;99.90;;;;;;5092222;28;20039;-71
2022/11/15 04:56:25;;;;;;;7.10;4.18;;;11.90;99.90;;;;;;5091428;28;20035;-70
2022/11/15 04:58:50;;;;;;;12.00;4.38;;;11.90;99.90;;;;;;5091335;28;20446;-71
2022/11/15 05:01:16;;;;;;;11.93;4.30;;;12.00;99.90;;;;;;5091298;28;20119;-69
2022/11/15 05:06:27;;;;;;;4.85;3.22;;;12.00;99.90;;;;;;5091312;28;20404;-70
2022/11/15 05:08:54;;;;;;;7.72;4.32;;;12.10;99.90;;;;;;5091562;28;20487;-71
2022/11/15 05:11:20;;;;;;;11.25;3.92;;;12.10;99.90;;;;;;5091192;28;20075;-70
2022/11/15 05:13:46;;;;;;;17.10;8.48;;;12.20;99.90;;;;;;5091464;28;20109;-71
2022/11/15 05:16:12;;;;;;;13.05;5.95;;;12.30;99.90;;;;;;5091086;28;20024;-71
2022/11/15 05:18:40;;;;;;;5.65;3.95;;;12.30;99.90;;;;;;5090901;28;20024;-71
2022/11/15 05:21:14;;;;;;;14.15;7.07;;;12.30;99.90;;;;;;5091777;28;20078;-70
2022/11/15 05:23:40;;;;;;;14.50;7.57;;;12.30;99.90;;;;;;5090996;28;20050;-72
2022/11/15 05:26:07;;;;;;;10.05;4.35;;;12.30;99.90;;;;;;5073082;28;20032;-72
2022/11/15 05:28:34;;;;;;;6.67;3.57;;;12.40;99.90;;;;;;5073131;28;20086;-71
2022/11/15 05:31:01;;;;;;;8.35;3.95;;;12.40;99.90;;;;;;5090933;28;20410;-70
2022/11/15 05:33:27;;;;;;;6.80;3.78;;;12.40;99.90;;;;;;5091085;28;20077;-70
2022/11/15 05:36:04;;;;;;;11.80;4.03;;;12.40;99.90;;;;;;5091355;28;20020;-72
2022/11/15 05:38:30;;;;;;;7.07;3.63;;;12.40;99.90;;;;;;5090640;28;20044;-70
2022/11/15 05:40:55;;;;;;;8.50;3.83;;;12.50;99.90;;;;;;5090425;28;20044;-73
2022/11/15 05:43:22;;;;;;;6.00;3.50;;;12.40;99.90;;;;;;5090250;28;20047;-72
2022/11/15 05:45:47;;;;;;;8.35;3.97;;;12.50;99.90;;;;;;5090478;28;20059;-73
2022/11/15 05:48:14;;;;;;;6.70;3.88;;;12.50;99.90;;;;;;5091445;28;20422;-72
2022/11/15 05:50:43;;;;;;;8.73;4.15;;;12.50;99.90;;;;;;5090334;28;20032;-72
2022/11/15 05:53:12;;;;;;;11.68;5.80;;;12.50;99.90;;;;;;5090678;28;20274;-72
2022/11/15 05:55:39;;;;;;;10.05;5.63;;;12.50;99.90;;;;;;5090682;28;20048;-71
2022/11/15 05:58:05;;;;;;;12.00;6.85;;;12.50;99.90;;;;;;5094380;28;20595;-73
2022/11/15 06:00:30;;;;;;;9.63;4.80;;;12.50;99.90;;;;;;5090497;28;20104;-72
2022/11/15 06:02:56;;;;;;;9.63;3.90;;;12.50;99.90;;;;;;5090080;28;20035;-72
2022/11/15 06:05:22;;;;;;;10.18;4.30;;;12.50;99.90;;;;;;5090755;28;20370;-72
2022/11/15 06:07:47;;;;;;;5.25;3.75;;;12.50;99.90;;;;;;5090657;28;20361;-71
2022/11/15 06:10:13;;;;;;;7.50;3.58;;;12.50;99.90;;;;;;5090386;28;20497;-71
2022/11/15 06:12:39;;;;;;;7.88;3.95;;;12.50;99.90;;;;;;5090474;28;20024;-72
2022/11/15 06:15:05;;;;;;;9.38;4.00;;;12.50;99.90;;;;;;5091208;28;20027;-73
2022/11/15 06:17:30;;;;;;;6.40;3.95;;;12.50;99.90;;;;;;5071189;28;20067;-73
2022/11/15 06:19:56;;;;;;;6.47;3.85;;;12.50;99.90;;;;;;5070779;28;20045;-73
2022/11/15 06:22:21;;;;;;;10.25;4.18;;;12.40;99.90;;;;;;5052751;28;20029;-72
2022/11/15 06:24:47;;;;;;;8.00;3.90;;;12.40;99.90;;;;;;5070390;28;20097;-72
2022/11/15 06:27:13;;;;;;;10.60;4.22;;;12.40;99.90;;;;;;5070120;28;20025;-73
2022/11/15 06:29:39;;;;;;;8.25;4.50;;;12.40;99.90;;;;;;5070082;28;20052;-72
2022/11/15 06:32:05;;;;;;;13.82;4.80;;;12.30;99.90;;;;;;5070282;28;20043;-72
2022/11/15 06:34:30;;;;;;;10.30;4.53;;;12.30;99.90;;;;;;5069036;28;20039;-72
2022/11/15 06:36:56;;;;;;;7.82;4.15;;;12.30;99.90;;;;;;5069176;28;20029;-73
2022/11/15 06:39:22;;;;;;;6.47;4.07;;;12.30;99.90;;;;;;5069397;28;20024;-73
2022/11/15 06:41:47;;;;;;;7.15;3.90;;;12.30;99.90;;;;;;5068835;28;20037;-72
2022/11/15 06:44:13;;;;;;;7.85;4.65;;;12.20;99.90;;;;;;5069748;28;20127;-74
2022/11/15 06:46:38;;;;;;;7.18;3.90;;;12.20;99.90;;;;;;5069659;28;20059;-73
2022/11/15 06:49:04;;;;;;;8.43;4.00;;;12.10;99.90;;;;;;5071562;28;20047;-72
2022/11/15 06:51:30;;;;;;;20.80;9.45;;;12.10;99.90;;;;;;5073436;28;20028;-73
2022/11/15 06:53:55;;;;;;;27.05;14.80;;;12.10;99.90;;;;;;5072891;28;20040;-73
2022/11/15 06:56:21;;;;;;;11.63;5.60;;;12.00;99.90;;;;;;5073450;28;20040;-74
2022/11/15 06:58:47;;;;;;;6.63;3.80;;;12.00;99.90;;;;;;5073250;28;20067;-72
2022/11/15 07:01:13;;;;;;;9.95;4.35;;;12.00;99.90;;;;;;5073240;28;20033;-73
2022/11/15 07:03:40;;;;;;;11.02;4.43;;;12.00;99.90;;;;;;5072570;28;20346;-73
2022/11/15 07:06:07;;;;;;;10.23;4.80;;;12.00;99.90;;;;;;5073935;28;20056;-73
2022/11/15 07:08:34;;;;;;;8.40;4.60;;;11.90;99.90;;;;;;5073344;28;20028;-72
2022/11/15 07:11:02;;;;;;;7.07;4.30;;;12.00;99.90;;;;;;5055443;28;20116;-73
2022/11/15 07:13:32;;;;;;;8.60;4.47;;;12.00;99.90;;;;;;5072037;28;20033;-72
2022/11/15 07:16:02;;;;;;;7.50;3.63;;;12.00;99.90;;;;;;5071886;28;20036;-73
2022/11/15 07:18:27;;;;;;;8.02;3.95;;;12.00;99.90;;;;;;5073023;28;20025;-72
2022/11/15 07:20:53;;;;;;;11.80;4.20;;;12.00;99.90;;;;;;5072227;28;20162;-73
2022/11/15 07:23:19;;;;;;;7.63;3.97;;;12.00;99.90;;;;;;5072979;28;20029;-73
2022/11/15 07:25:44;;;;;;;7.88;3.60;;;12.00;99.90;;;;;;5073152;28;20043;-72
2022/11/15 07:28:10;;;;;;;6.40;3.67;;;12.00;99.90;;;;;;5073013;28;20182;-74
2022/11/15 07:30:36;;;;;;;6.15;4.05;;;12.00;99.90;;;;;;5055477;28;20418;-72
2022/11/15 07:33:02;;;;;;;6.60;3.67;;;12.00;99.90;;;;;;5073232;28;20100;-74
2022/11/15 07:35:29;;;;;;;6.35;3.65;;;12.00;99.90;;;;;;5072785;28;20044;-72
2022/11/15 07:38:00;;;;;;;5.75;3.65;;;12.00;99.90;;;;;;5072758;28;20490;-74
2022/11/15 07:40:28;;;;;;;8.80;4.13;;;12.00;99.90;;;;;;5072643;28;20037;-73
2022/11/15 07:43:03;;;;;;;7.97;3.63;;;12.00;99.90;;;;;;5072279;28;20098;-72
2022/11/15 07:45:29;;;;;;;7.57;3.90;;;12.10;99.90;;;;;;5072702;28;20028;-74
2022/11/15 07:47:56;;;;;;;8.95;4.20;;;12.10;99.90;;;;;;5072758;28;20031;-73
2022/11/15 07:50:26;;;;;;;6.03;3.42;;;12.00;99.90;;;;;;5072481;28;20037;-73
2022/11/15 07:52:59;;;;;;;7.78;3.65;;;12.10;99.90;;;;;;5072449;28;20044;-72
2022/11/15 07:55:27;;;;;;;7.75;3.53;;;12.10;99.90;;;;;;5072469;28;20041;-72
2022/11/15 07:57:59;;;;;;;6.60;3.80;;;12.10;99.90;;;;;;5054791;28;20032;-73
2022/11/15 08:00:25;;;;;;;8.90;4.28;;;12.10;99.90;;;;;;5071373;28;20028;-73
2022/11/15 08:02:50;;;;;;;11.23;4.00;;;12.10;99.90;;;;;;5072719;28;20031;-70
2022/11/15 08:05:16;;;;;;;10.23;3.78;;;12.10;99.90;;;;;;5072243;28;20097;-72
2022/11/15 08:07:42;;;;;;;7.40;4.07;;;12.10;99.90;;;;;;5072196;28;20029;-72
2022/11/15 08:10:08;;;;;;;7.22;3.60;;;12.10;99.90;;;;;;5072100;28;20466;-73
2022/11/15 08:12:34;;;;;;;9.90;3.65;;;12.20;99.90;;;;;;5072242;28;20461;-73
2022/11/15 08:14:59;;;;;;;7.20;4.78;;;12.20;99.90;;;;;;5072553;28;20372;-71
2022/11/15 08:17:25;;;;;;;9.43;3.67;;;12.30;99.90;;;;;;5071000;28;20032;-73
2022/11/15 08:19:51;;;;;;;6.93;3.50;;;12.30;99.90;;;;;;5071858;28;20044;-71
2022/11/15 08:22:18;;;;;;;9.25;4.28;;;12.40;99.90;;;;;;5054242;28;20032;-72
2022/11/15 08:24:44;;;;;;;7.70;3.65;;;12.40;99.90;;;;;;5071948;28;20119;-73
2022/11/15 08:27:14;;;;;;;6.63;3.10;;;12.50;99.90;;;;;;5072287;28;20040;-73
2022/11/15 08:29:43;;;;;;;6.82;3.67;;;12.50;99.90;;;;;;5071169;28;20044;-73
2022/11/15 08:32:09;;;;;;;8.30;3.70;;;12.70;99.90;;;;;;5072194;28;20063;-73
2022/11/15 08:34:34;;;;;;;6.53;3.50;;;12.80;99.90;;;;;;5071849;28;20033;-73
2022/11/15 08:37:00;;;;;;;7.15;3.80;;;12.90;99.90;;;;;;5071580;28;20039;-74
2022/11/15 08:39:26;;;;;;;6.43;3.88;;;13.00;99.90;;;;;;5071562;28;20358;-73
2022/11/15 08:41:51;;;;;;;8.18;3.80;;;13.10;99.90;;;;;;5071763;28;20038;-72
2022/11/15 08:44:17;;;;;;;8.88;4.15;;;13.10;99.90;;;;;;5071533;28;20060;-72
2022/11/15 08:46:45;;;;;;;8.30;3.55;;;13.20;99.90;;;;;;5053621;28;20052;-73
2022/11/15 08:49:11;;;;;;;5.57;3.33;;;13.20;99.90;;;;;;5071472;28;20097;-74
2022/11/15 08:51:37;;;;;;;6.30;3.13;;;13.30;99.90;;;;;;5071331;28;20490;-74
2022/11/15 08:54:02;;;;;;;4.55;3.38;;;13.30;99.90;;;;;;5072089;28;20025;-73
2022/11/15 08:56:28;;;;;;;9.10;3.60;;;13.30;99.90;;;;;;5070042;28;20032;-73
2022/11/15 08:58:53;;;;;;;10.93;3.75;;;13.30;99.90;;;;;;5071185;28;20055;-73
2022/11/15 09:01:20;;;;;;;6.95;3.72;;;13.40;99.90;;;;;;5071243;28;20484;-72
2022/11/15 09:03:46;;;;;;;7.00;3.72;;;13.40;99.90;;;;;;5071130;28;20282;-73
2022/11/15 09:06:12;;;;;;;9.52;3.33;;;13.50;99.90;;;;;;5072136;28;20020;-73
2022/11/15 09:08:38;;;;;;;6.90;3.72;;;13.50;99.90;;;;;;5071404;28;20044;-74
2022/11/15 09:11:06;;;;;;;6.07;3.55;;;13.50;99.90;;;;;;5070947;28;20037;-73
2022/11/15 09:13:32;;;;;;;7.43;3.70;;;13.50;99.90;;;;;;5071244;28;20024;-73
2022/11/15 09:15:59;;;;;;;6.60;3.05;;;13.50;99.90;;;;;;5069896;28;20250;-74
2022/11/15 09:18:25;;;;;;;5.90;3.45;;;13.60;99.90;;;;;;5053373;28;20050;-73
2022/11/15 09:20:51;;;;;;;7.75;3.55;;;13.60;99.90;;;;;;5070347;28;20438;-73
2022/11/15 09:23:16;;;;;;;7.10;2.72;;;13.70;99.90;;;;;;5070632;28;20024;-73
2022/11/15 09:25:42;;;;;;;5.63;2.80;;;13.70;99.90;;;;;;5053073;28;20120;-73
2022/11/15 09:28:08;;;;;;;6.20;2.95;;;13.80;99.90;;;;;;5070885;28;20333;-72
2022/11/15 09:30:34;;;;;;;5.18;3.42;;;13.80;99.90;;;;;;5070837;28;20438;-73
2022/11/15 09:33:09;;;;;;;6.10;3.20;;;13.90;99.90;;;;;;5070533;28;20394;-73
2022/11/15 09:35:35;;;;;;;4.57;2.83;;;13.90;99.90;;;;;;5071000;28;20043;-72
2022/11/15 09:38:02;;;;;;;5.88;3.22;;;14.00;99.90;;;;;;5071136;28;20029;-71
2022/11/15 09:40:31;;;;;;;6.65;3.17;;;14.10;99.90;;;;;;5070696;28;20033;-73
2022/11/15 09:43:17;;;;;;;8.20;3.30;;;14.10;99.70;;;;;;5049389;28;20045;-72
2022/11/15 09:45:52;;;;;;;6.50;2.53;;;14.20;99.50;;;;;;5050545;28;20052;-73
2022/11/15 09:48:45;;;;;;;5.05;2.95;;;14.20;99.40;;;;;;5049789;28;20048;-72
2022/11/15 09:51:24;;;;;;;4.30;2.97;;;14.20;99.60;;;;;;5050548;28;20037;-72
2022/11/15 09:54:02;;;;;;;6.05;3.20;;;14.30;99.50;;;;;;5050577;28;20041;-72
2022/11/15 09:56:35;;;;;;;7.68;3.25;;;14.30;99.30;;;;;;5050335;28;20033;-74
2022/11/15 09:59:19;;;;;;;4.57;2.90;;;14.30;99.20;;;;;;5050390;28;20039;-73
2022/11/15 10:01:54;;;;;;;5.28;3.38;;;14.40;99.40;;;;;;5050473;28;20382;-74
2022/11/15 10:04:22;;;;;;;7.47;3.35;;;14.40;99.30;;;;;;5049114;28;20025;-72
2022/11/15 10:07:13;;;;;;;8.20;3.03;;;14.40;99.20;;;;;;5050329;28;20036;-71
2022/11/15 10:09:48;;;;;;;4.93;3.45;;;14.50;99.20;;;;;;5035689;28;20119;-73
2022/11/15 10:12:15;;;;;;;5.20;2.80;;;14.50;99.20;;;;;;5050058;28;20021;-71
2022/11/15 10:14:41;;;;;;;5.20;2.67;;;14.60;99.00;;;;;;5050764;28;20029;-71
2022/11/15 10:17:31;;;;;;;4.72;2.75;;;14.60;98.90;;;;;;5050223;28;20043;-72
2022/11/15 10:20:08;;;;;;;4.78;2.90;;;14.70;99.10;;;;;;5050398;28;20028;-71
2022/11/15 10:22:48;;;;;;;3.60;2.38;;;14.80;99.00;;;;;;5050226;28;20143;-71
2022/11/15 10:25:22;;;;;;;5.72;2.90;;;14.80;98.80;;;;;;5053962;28;20433;-72
2022/11/15 10:28:05;;;;;;;5.85;2.95;;;14.90;98.90;;;;;;5053129;28;20115;-73
2022/11/15 10:30:38;;;;;;;4.40;2.80;;;15.00;98.90;;;;;;5054861;28;20029;-71
2022/11/15 10:33:31;;;;;;;5.53;2.72;;;15.10;98.80;;;;;;5054891;28;20087;-72
2022/11/15 10:36:08;;;;;;;5.43;2.53;;;15.30;98.80;;;;;;5051330;28;20083;-70
2022/11/15 10:38:49;;;;;;;5.85;3.08;;;15.40;98.30;;;;;;5054417;28;20040;-71
2022/11/15 10:41:18;;;;;;;12.02;4.82;;;15.60;98.60;;;;;;5054014;28;20036;-70
2022/11/15 10:43:44;;;;;;;5.68;2.88;;;15.90;98.20;;;;;;5071415;28;20055;-72
2022/11/15 10:46:22;;;;;;;6.28;2.83;;;16.50;98.40;;;;;;5074283;28;20052;-73
2022/11/15 10:48:48;;;;;;;3.85;2.47;;;16.70;97.30;;;;;;5073661;28;20035;-71
2022/11/15 10:51:30;;;;;;;5.38;2.33;;;17.30;97.70;;;;;;5074380;28;20342;-74
2022/11/15 10:53:59;;;;;;;8.00;2.75;;;18.30;97.80;;;;;;5073751;28;20044;-73
2022/11/15 10:56:26;;;;;;;4.60;1.83;;;19.20;96.80;;;;;;5073535;28;20078;-74
2022/11/15 10:58:57;;;;;;;4.83;2.17;;;19.80;94.20;;;;;;5073330;28;20135;-72
2022/11/15 11:01:24;;;;;;;6.88;1.83;;;20.40;94.80;;;;;;5073593;28;20024;-72
2022/11/15 11:04:02;;;;;;;4.43;2.50;;;20.80;93.50;;;;;;5072468;28;20037;-73
2022/11/15 11:06:29;;;;;;;2.15;1.80;;;21.60;93.00;;;;;;5073240;28;20469;-71
2022/11/15 11:09:02;;;;;;;4.88;2.60;;;21.90;92.30;;;;;;5055818;28;20121;-72
2022/11/15 11:11:48;;;;;;;9.25;2.83;;;21.70;90.70;;;;;;5073706;28;20067;-72
2022/11/15 11:14:27;;;;;;;4.50;2.25;;;20.70;90.30;;;;;;5073407;28;20419;-72
2022/11/15 11:16:53;;;;;;;5.90;2.63;;;20.10;91.20;;;;;;5073471;28;20424;-71
2022/11/15 11:19:49;;;;;;;4.32;2.30;;;19.60;91.40;;;;;;5055015;28;20036;-72
2022/11/15 11:22:29;;;;;;;7.05;2.60;;;19.30;91.80;;;;;;5073158;28;20033;-70
2022/11/15 11:25:10;;;;;;;33.35;18.98;;;19.30;92.10;;;;;;5073101;28;20040;-73
2022/11/15 11:27:43;;;;;;;49.92;28.15;;;19.30;92.10;;;;;;5072875;28;20025;-73
2022/11/15 11:30:39;;;;;;;8.18;3.92;;;19.30;91.90;;;;;;5055440;28;20028;-73
2022/11/15 11:33:10;;;;;;;4.53;2.20;;;19.10;91.90;;;;;;5055021;28;20041;-73
2022/11/15 11:36:04;;;;;;;6.00;2.22;;;19.00;91.70;;;;;;5072535;28;20094;-71
2022/11/15 11:38:58;;;;;;;4.75;2.10;;;18.90;92.30;;;;;;5072506;28;20047;-70
2022/11/15 11:41:31;;;;;;;3.63;1.98;;;18.70;92.20;;;;;;5021568;28;20120;-71
2022/11/15 11:44:05;;;;;;;4.57;2.10;;;18.60;92.40;;;;;;5072392;28;20100;-72
2022/11/15 11:46:59;;;;;;;5.55;1.92;;;18.50;92.40;;;;;;5072200;28;20044;-70
2022/11/15 11:50:10;;;;;;;7.13;2.17;;;18.50;93.00;;;;;;5072451;28;20036;-71
2022/11/15 11:52:43;;;;;;;5.30;2.25;;;18.50;93.00;;;;;;5072351;28;20374;-71
2022/11/15 11:55:28;;;;;;;6.60;3.55;;;18.40;92.90;;;;;;5072377;28;20245;-74
2022/11/15 11:58:06;;;;;;;3.65;2.08;;;18.30;92.90;;;;;;5072096;28;20067;-72
2022/11/15 12:00:38;;;;;;;6.50;2.40;;;18.20;92.90;;;;;;5072181;28;20104;-72
2022/11/15 12:03:25;;;;;;;3.38;2.13;;;18.10;92.80;;;;;;5054828;28;20024;-73
2022/11/15 12:06:23;;;;;;;7.80;2.13;;;18.00;93.10;;;;;;5055449;28;20358;-72
2022/11/15 12:09:04;;;;;;;4.35;2.20;;;17.90;92.80;;;;;;5072577;28;20029;-72
2022/11/15 12:11:47;;;;;;;5.28;2.15;;;17.70;92.80;;;;;;5072693;28;20032;-72
2022/11/15 12:14:26;;;;;;;3.15;2.03;;;17.60;93.20;;;;;;5072379;28;20036;-73
2022/11/15 12:16:52;;;;;;;3.50;1.98;;;17.60;93.30;;;;;;5072548;28;20040;-71
2022/11/15 12:19:17;;;;;;;4.20;2.50;;;17.40;93.30;;;;;;5072517;28;20024;-71
2022/11/15 12:21:46;;;;;;;3.95;2.63;;;17.30;93.60;;;;;;5071979;28;20045;-71
2022/11/15 12:24:24;;;;;;;5.53;2.65;;;17.20;93.80;;;;;;5072802;28;20031;-70
2022/11/15 12:26:57;;;;;;;3.70;2.30;;;17.20;93.70;;;;;;5071989;28;20387;-72
2022/11/15 12:29:29;;;;;;;2.95;2.17;;;17.10;93.80;;;;;;5072721;28;20102;-71
2022/11/15 12:31:59;;;;;;;3.88;2.13;;;17.10;94.00;;;;;;5054666;28;20146;-72
2022/11/15 12:34:28;;;;;;;5.40;2.28;;;16.90;94.10;;;;;;5071648;28;20120;-70
2022/11/15 12:36:53;;;;;;;5.57;2.42;;;16.90;93.90;;;;;;5071992;28;20316;-72
2022/11/15 12:39:20;;;;;;;7.03;2.35;;;16.90;94.00;;;;;;5073599;28;20032;-71
2022/11/15 12:41:55;;;;;;;4.22;2.20;;;16.80;94.10;;;;;;5072522;28;20454;-71
2022/11/15 12:44:37;;;;;;;3.58;2.30;;;16.70;94.20;;;;;;5072583;28;20032;-71
2022/11/15 12:47:22;;;;;;;3.40;2.30;;;16.70;94.30;;;;;;5072489;28;20045;-72
2022/11/15 12:49:48;;;;;;;3.90;2.17;;;16.60;94.70;;;;;;5072581;28;20033;-73
2022/11/15 12:52:15;;;;;;;3.60;1.92;;;16.50;94.50;;;;;;5072504;28;20024;-73
2022/11/15 12:54:41;;;;;;;4.15;2.38;;;16.50;94.80;;;;;;5072714;28;20077;-72
2022/11/15 12:57:06;;;;;;;3.97;2.80;;;16.50;94.70;;;;;;5071925;28;20028;-71
2022/11/15 12:59:54;;;;;;;5.22;2.42;;;16.50;94.70;;;;;;5071362;28;20108;-73
2022/11/15 13:02:35;;;;;;;4.55;2.20;;;16.50;94.80;;;;;;5070767;28;20444;-72
2022/11/15 13:05:18;;;;;;;6.07;2.28;;;16.50;94.80;;;;;;5070933;28;20041;-73
2022/11/15 13:07:46;;;;;;;4.65;2.35;;;16.50;94.90;;;;;;5071187;28;20535;-73
2022/11/15 13:10:12;;;;;;;3.30;2.28;;;16.50;94.80;;;;;;5070429;28;20107;-72
2022/11/15 13:12:46;;;;;;;3.63;2.30;;;16.60;95.00;;;;;;5070767;28;20115;-73
2022/11/15 13:15:12;;;;;;;6.22;2.55;;;16.60;94.90;;;;;;5053427;28;20047;-71
2022/11/15 13:17:43;;;;;;;3.60;2.03;;;16.50;94.90;;;;;;5070717;28;20028;-72